sensor_id;sensor_type;location;lat;lon;timestamp;pressure;altitude;pressure_sealevel;temperature;humidity
60258;BME280;46115;44.484;11.314;2023-03-13T00:02:53;100495.47;;;9.20;80.86
60258;BME280;46115;44.484;11.314;2023-03-13T00:06:55;100527.28;;;9.37;80.95
60258;BME280;46115;44.484;11.314;2023-03-13T00:11:00;100523.72;;;9.38;80.75
60258;BME280;46115;44.484;11.314;2023-03-13T00:15:03;100521.66;;;9.24;81.35
60258;BME280;46115;44.484;11.314;2023-03-13T00:19:06;100494.38;;;9.05;81.01
60258;BME280;46115;44.484;11.314;2023-03-13T00:23:09;100504.91;;;9.05;80.85
60258;BME280;46115;44.484;11.314;2023-03-13T00:27:12;100507.38;;;8.88;81.30
60258;BME280;46115;44.484;11.314;2023-03-13T00:31:16;100517.53;;;8.97;80.71
60258;BME280;46115;44.484;11.314;2023-03-13T00:35:19;100558.31;;;9.10;81.33
60258;BME280;46115;44.484;11.314;2023-03-13T00:39:21;100549.53;;;9.10;81.91
60258;BME280;46115;44.484;11.314;2023-03-13T00:43:25;100554.75;;;9.11;81.67
60258;BME280;46115;44.484;11.314;2023-03-13T00:47:27;100525.25;;;9.01;81.84
60258;BME280;46115;44.484;11.314;2023-03-13T00:51:29;100556.88;;;9.01;82.29
60258;BME280;46115;44.484;11.314;2023-03-13T00:55:32;100565.69;;;9.02;83.00
60258;BME280;46115;44.484;11.314;2023-03-13T00:59:35;100460.91;;;8.43;82.26
60258;BME280;46115;44.484;11.314;2023-03-13T01:03:39;100538.03;;;8.90;82.44
60258;BME280;46115;44.484;11.314;2023-03-13T01:07:42;100560.28;;;9.25;82.92
60258;BME280;46115;44.484;11.314;2023-03-13T01:11:45;100447.81;;;8.62;82.64
60258;BME280;46115;44.484;11.314;2023-03-13T01:15:49;100518.50;;;8.94;81.76
60258;BME280;46115;44.484;11.314;2023-03-13T01:19:54;100483.13;;;8.80;81.99
60258;BME280;46115;44.484;11.314;2023-03-13T01:23:57;100535.09;;;9.18;83.18
60258;BME280;46115;44.484;11.314;2023-03-13T01:27:59;100551.31;;;9.29;82.47
60258;BME280;46115;44.484;11.314;2023-03-13T01:32:04;100498.16;;;8.98;83.25
60258;BME280;46115;44.484;11.314;2023-03-13T01:36:25;100518.22;;;9.02;81.67
60258;BME280;46115;44.484;11.314;2023-03-13T01:40:28;100545.19;;;9.29;83.31
60258;BME280;46115;44.484;11.314;2023-03-13T01:44:48;100498.41;;;8.92;82.71
60258;BME280;46115;44.484;11.314;2023-03-13T01:48:56;100515.06;;;9.14;82.64
60258;BME280;46115;44.484;11.314;2023-03-13T01:53:00;100531.94;;;9.30;82.85
60258;BME280;46115;44.484;11.314;2023-03-13T01:57:07;100494.72;;;8.96;82.54
60258;BME280;46115;44.484;11.314;2023-03-13T02:01:11;100476.47;;;8.91;83.06
60258;BME280;46115;44.484;11.314;2023-03-13T02:05:18;100427.84;;;8.56;84.02
60258;BME280;46115;44.484;11.314;2023-03-13T02:09:24;100440.91;;;8.59;84.17
60258;BME280;46115;44.484;11.314;2023-03-13T02:13:28;100463.09;;;8.75;84.95
60258;BME280;46115;44.484;11.314;2023-03-13T02:17:31;100456.28;;;8.70;84.82
60258;BME280;46115;44.484;11.314;2023-03-13T02:21:41;100481.59;;;8.94;85.13
60258;BME280;46115;44.484;11.314;2023-03-13T02:25:47;100493.66;;;9.00;84.94
60258;BME280;46115;44.484;11.314;2023-03-13T02:29:54;100443.72;;;8.97;84.51
60258;BME280;46115;44.484;11.314;2023-03-13T02:33:59;100400.22;;;8.87;81.30
60258;BME280;46115;44.484;11.314;2023-03-13T02:38:06;100445.91;;;9.07;80.35
60258;BME280;46115;44.484;11.314;2023-03-13T02:42:11;100436.19;;;8.88;84.46
60258;BME280;46115;44.484;11.314;2023-03-13T02:46:17;100378.22;;;8.67;84.05
60258;BME280;46115;44.484;11.314;2023-03-13T02:50:23;100406.22;;;8.70;84.81
60258;BME280;46115;44.484;11.314;2023-03-13T02:54:30;100395.31;;;8.57;86.33
60258;BME280;46115;44.484;11.314;2023-03-13T02:58:38;100336.97;;;8.46;85.47
60258;BME280;46115;44.484;11.314;2023-03-13T03:02:40;100405.09;;;8.75;86.17
60258;BME280;46115;44.484;11.314;2023-03-13T03:06:42;100456.16;;;8.93;86.55
60258;BME280;46115;44.484;11.314;2023-03-13T03:10:45;100430.00;;;8.89;86.46
60258;BME280;46115;44.484;11.314;2023-03-13T03:14:49;100435.09;;;9.14;85.77
60258;BME280;46115;44.484;11.314;2023-03-13T03:18:52;100424.59;;;8.92;82.53
60258;BME280;46115;44.484;11.314;2023-03-13T03:22:54;100449.06;;;9.16;84.19
60258;BME280;46115;44.484;11.314;2023-03-13T03:26:56;100438.38;;;9.19;83.07
60258;BME280;46115;44.484;11.314;2023-03-13T03:31:07;100441.72;;;9.22;85.08
60258;BME280;46115;44.484;11.314;2023-03-13T03:35:10;100408.19;;;8.85;86.43
60258;BME280;46115;44.484;11.314;2023-03-13T03:39:13;100438.38;;;8.98;86.98
60258;BME280;46115;44.484;11.314;2023-03-13T03:43:16;100444.63;;;9.16;86.39
60258;BME280;46115;44.484;11.314;2023-03-13T03:47:20;100399.22;;;8.89;86.22
60258;BME280;46115;44.484;11.314;2023-03-13T03:51:23;100430.31;;;9.01;86.75
60258;BME280;46115;44.484;11.314;2023-03-13T03:55:26;100449.38;;;9.28;85.12
60258;BME280;46115;44.484;11.314;2023-03-13T03:59:28;100456.69;;;9.22;83.21
60258;BME280;46115;44.484;11.314;2023-03-13T04:03:37;100444.22;;;9.25;84.07
60258;BME280;46115;44.484;11.314;2023-03-13T04:07:40;100414.06;;;8.92;84.07
60258;BME280;46115;44.484;11.314;2023-03-13T04:11:42;100486.63;;;9.21;83.16
60258;BME280;46115;44.484;11.314;2023-03-13T04:15:46;100448.69;;;9.04;83.75
60258;BME280;46115;44.484;11.314;2023-03-13T04:19:51;100460.00;;;9.27;84.67
60258;BME280;46115;44.484;11.314;2023-03-13T04:23:54;100477.81;;;9.22;84.19
60258;BME280;46115;44.484;11.314;2023-03-13T04:27:56;100453.41;;;9.17;83.74
60258;BME280;46115;44.484;11.314;2023-03-13T04:32:04;100385.13;;;8.70;82.52
60258;BME280;46115;44.484;11.314;2023-03-13T04:36:18;100435.06;;;8.73;83.17
60258;BME280;46115;44.484;11.314;2023-03-13T04:40:34;100444.03;;;8.89;82.50
60258;BME280;46115;44.484;11.314;2023-03-13T04:44:45;100406.56;;;8.40;84.23
60258;BME280;46115;44.484;11.314;2023-03-13T04:49:11;100496.09;;;8.84;83.69
60258;BME280;46115;44.484;11.314;2023-03-13T04:53:28;100425.47;;;8.72;82.51
60258;BME280;46115;44.484;11.314;2023-03-13T04:57:49;100480.09;;;8.67;82.74
60258;BME280;46115;44.484;11.314;2023-03-13T05:02:01;100475.19;;;8.37;83.47
60258;BME280;46115;44.484;11.314;2023-03-13T05:06:32;100483.94;;;8.38;83.72
60258;BME280;46115;44.484;11.314;2023-03-13T05:10:56;100511.50;;;8.73;82.39
60258;BME280;46115;44.484;11.314;2023-03-13T05:15:11;100499.50;;;8.44;84.73
60258;BME280;46115;44.484;11.314;2023-03-13T05:19:19;100470.22;;;8.28;85.19
60258;BME280;46115;44.484;11.314;2023-03-13T05:23:41;100501.38;;;8.17;85.29
60258;BME280;46115;44.484;11.314;2023-03-13T05:28:03;100536.75;;;8.57;84.62
60258;BME280;46115;44.484;11.314;2023-03-13T05:32:26;100551.69;;;8.56;84.59
60258;BME280;46115;44.484;11.314;2023-03-13T05:36:51;100544.16;;;8.47;82.86
60258;BME280;46115;44.484;11.314;2023-03-13T05:41:32;100547.09;;;8.61;83.65
60258;BME280;46115;44.484;11.314;2023-03-13T05:45:35;100537.09;;;8.48;82.95
60258;BME280;46115;44.484;11.314;2023-03-13T05:50:08;100524.59;;;8.53;84.78
60258;BME280;46115;44.484;11.314;2023-03-13T05:54:29;100467.16;;;8.17;83.99
60258;BME280;46115;44.484;11.314;2023-03-13T05:58:50;100554.19;;;8.59;84.81
60258;BME280;46115;44.484;11.314;2023-03-13T06:03:23;100546.91;;;8.66;83.47
60258;BME280;46115;44.484;11.314;2023-03-13T06:07:28;100549.50;;;8.89;81.45
60258;BME280;46115;44.484;11.314;2023-03-13T06:11:30;100554.38;;;8.98;82.21
60258;BME280;46115;44.484;11.314;2023-03-13T06:15:33;100485.41;;;8.45;82.40
60258;BME280;46115;44.484;11.314;2023-03-13T06:19:47;100570.56;;;8.89;82.47
60258;BME280;46115;44.484;11.314;2023-03-13T06:23:49;100527.06;;;8.79;82.53
60258;BME280;46115;44.484;11.314;2023-03-13T06:27:51;100571.13;;;8.97;84.32
60258;BME280;46115;44.484;11.314;2023-03-13T06:31:54;100545.84;;;9.14;83.83
60258;BME280;46115;44.484;11.314;2023-03-13T06:35:58;100566.88;;;9.15;83.74
60258;BME280;46115;44.484;11.314;2023-03-13T06:40:00;100560.75;;;9.15;84.47
60258;BME280;46115;44.484;11.314;2023-03-13T06:44:04;100564.25;;;9.35;83.35
60258;BME280;46115;44.484;11.314;2023-03-13T06:48:06;100559.53;;;9.44;82.68
60258;BME280;46115;44.484;11.314;2023-03-13T06:52:10;100538.19;;;9.07;83.17
60258;BME280;46115;44.484;11.314;2023-03-13T06:56:12;100541.72;;;9.49;82.34
60258;BME280;46115;44.484;11.314;2023-03-13T07:00:15;100499.13;;;9.37;81.72
60258;BME280;46115;44.484;11.314;2023-03-13T07:04:18;100568.34;;;9.83;80.54
60258;BME280;46115;44.484;11.314;2023-03-13T07:08:21;100594.19;;;10.16;80.92
60258;BME280;46115;44.484;11.314;2023-03-13T07:12:25;100582.38;;;10.04;80.77
60258;BME280;46115;44.484;11.314;2023-03-13T07:16:27;100578.16;;;10.00;82.08
60258;BME280;46115;44.484;11.314;2023-03-13T07:20:29;100571.13;;;10.19;81.43
60258;BME280;46115;44.484;11.314;2023-03-13T07:24:34;100561.00;;;9.90;83.00
60258;BME280;46115;44.484;11.314;2023-03-13T07:28:36;100560.38;;;10.61;79.66
60258;BME280;46115;44.484;11.314;2023-03-13T07:32:39;100563.41;;;10.71;79.76
60258;BME280;46115;44.484;11.314;2023-03-13T07:36:41;100563.81;;;11.69;76.87
60258;BME280;46115;44.484;11.314;2023-03-13T07:40:52;100563.00;;;12.34;73.36
60258;BME280;46115;44.484;11.314;2023-03-13T07:44:55;100532.63;;;12.40;72.14
60258;BME280;46115;44.484;11.314;2023-03-13T07:48:57;100565.84;;;12.63;72.50
60258;BME280;46115;44.484;11.314;2023-03-13T07:52:59;100568.78;;;13.04;71.14
60258;BME280;46115;44.484;11.314;2023-03-13T07:57:03;100560.75;;;13.21;69.07
60258;BME280;46115;44.484;11.314;2023-03-13T08:01:09;100558.53;;;12.82;70.39
60258;BME280;46115;44.484;11.314;2023-03-13T08:05:12;100568.88;;;13.48;67.49
60258;BME280;46115;44.484;11.314;2023-03-13T08:09:14;100577.25;;;14.57;64.34
60258;BME280;46115;44.484;11.314;2023-03-13T08:13:18;100545.94;;;15.02;62.94
60258;BME280;46115;44.484;11.314;2023-03-13T08:17:20;100576.06;;;15.42;62.77
60258;BME280;46115;44.484;11.314;2023-03-13T08:21:25;100596.63;;;15.80;61.55
60258;BME280;46115;44.484;11.314;2023-03-13T08:25:27;100531.22;;;14.96;61.70
60258;BME280;46115;44.484;11.314;2023-03-13T08:29:31;100565.31;;;15.04;62.66
60258;BME280;46115;44.484;11.314;2023-03-13T08:33:34;100510.81;;;14.42;64.91
60258;BME280;46115;44.484;11.314;2023-03-13T08:37:36;100574.47;;;15.00;64.78
60258;BME280;46115;44.484;11.314;2023-03-13T08:41:39;100513.00;;;14.49;66.28
60258;BME280;46115;44.484;11.314;2023-03-13T08:45:43;100557.56;;;15.14;65.28
60258;BME280;46115;44.484;11.314;2023-03-13T08:49:45;100553.19;;;16.41;61.12
60258;BME280;46115;44.484;11.314;2023-03-13T08:53:48;100549.47;;;16.31;60.15
60258;BME280;46115;44.484;11.314;2023-03-13T08:57:51;100526.31;;;18.08;55.16
60258;BME280;46115;44.484;11.314;2023-03-13T09:01:54;100590.66;;;19.49;51.68
60258;BME280;46115;44.484;11.314;2023-03-13T09:05:57;100594.28;;;20.32;49.19
60258;BME280;46115;44.484;11.314;2023-03-13T09:09:59;100599.72;;;21.31;47.00
60258;BME280;46115;44.484;11.314;2023-03-13T09:14:02;100532.75;;;20.40;47.35
60258;BME280;46115;44.484;11.314;2023-03-13T09:18:06;100534.72;;;20.88;46.36
60258;BME280;46115;44.484;11.314;2023-03-13T09:22:08;100533.44;;;20.42;47.07
60258;BME280;46115;44.484;11.314;2023-03-13T09:26:11;100602.56;;;22.62;43.00
60258;BME280;46115;44.484;11.314;2023-03-13T09:30:14;100539.72;;;22.89;42.22
60258;BME280;46115;44.484;11.314;2023-03-13T09:34:17;100618.03;;;22.97;41.81
60258;BME280;46115;44.484;11.314;2023-03-13T09:38:20;100637.47;;;25.68;37.26
60258;BME280;46115;44.484;11.314;2023-03-13T09:42:30;100512.28;;;23.90;38.70
60258;BME280;46115;44.484;11.314;2023-03-13T09:46:35;100638.81;;;25.88;36.40
60258;BME280;46115;44.484;11.314;2023-03-13T09:50:43;100573.22;;;26.25;35.36
60258;BME280;46115;44.484;11.314;2023-03-13T09:54:51;100560.13;;;25.41;35.57
60258;BME280;46115;44.484;11.314;2023-03-13T09:58:58;100606.19;;;24.56;37.74
60258;BME280;46115;44.484;11.314;2023-03-13T10:03:10;100520.88;;;20.12;45.23
60258;BME280;46115;44.484;11.314;2023-03-13T10:07:15;100521.03;;;19.59;46.92
60258;BME280;46115;44.484;11.314;2023-03-13T10:11:24;100587.53;;;20.37;48.13
60258;BME280;46115;44.484;11.314;2023-03-13T10:15:33;100582.97;;;18.81;52.06
60258;BME280;46115;44.484;11.314;2023-03-13T10:19:40;100572.13;;;18.82;52.06
60258;BME280;46115;44.484;11.314;2023-03-13T10:23:48;100505.50;;;18.23;53.48
60258;BME280;46115;44.484;11.314;2023-03-13T10:27:53;100531.38;;;18.67;53.43
60258;BME280;46115;44.484;11.314;2023-03-13T10:31:57;100496.41;;;17.81;54.85
60258;BME280;46115;44.484;11.314;2023-03-13T10:36:06;100480.22;;;17.71;54.31
60258;BME280;46115;44.484;11.314;2023-03-13T10:40:13;100537.50;;;17.56;55.88
60258;BME280;46115;44.484;11.314;2023-03-13T10:44:18;100503.19;;;18.30;54.75
60258;BME280;46115;44.484;11.314;2023-03-13T10:48:23;100512.31;;;17.94;55.62
60258;BME280;46115;44.484;11.314;2023-03-13T10:52:34;100471.13;;;17.85;54.82
60258;BME280;46115;44.484;11.314;2023-03-13T10:56:44;100540.88;;;17.93;55.04
60258;BME280;46115;44.484;11.314;2023-03-13T11:00:46;100448.34;;;17.57;55.50
60258;BME280;46115;44.484;11.314;2023-03-13T11:04:50;100463.34;;;17.82;55.88
60258;BME280;46115;44.484;11.314;2023-03-13T11:09:04;100437.41;;;17.38;56.23
60258;BME280;46115;44.484;11.314;2023-03-13T11:13:28;100469.66;;;17.70;56.11
60258;BME280;46115;44.484;11.314;2023-03-13T11:17:34;100435.16;;;17.09;58.10
60258;BME280;46115;44.484;11.314;2023-03-13T11:21:44;100492.63;;;17.72;57.80
60258;BME280;46115;44.484;11.314;2023-03-13T11:25:59;100416.59;;;17.30;58.33
60258;BME280;46115;44.484;11.314;2023-03-13T11:30:14;100462.00;;;17.19;60.15
60258;BME280;46115;44.484;11.314;2023-03-13T11:34:22;100470.63;;;16.88;60.93
60258;BME280;46115;44.484;11.314;2023-03-13T11:38:32;100432.13;;;16.79;61.02
60258;BME280;46115;44.484;11.314;2023-03-13T11:47:26;100469.94;;;17.43;59.65
60258;BME280;46115;44.484;11.314;2023-03-13T11:51:33;100388.66;;;16.66;60.07
60258;BME280;46115;44.484;11.314;2023-03-13T11:55:48;100473.44;;;16.97;59.79
60258;BME280;46115;44.484;11.314;2023-03-13T12:00:13;100413.53;;;16.06;61.95
60258;BME280;46115;44.484;11.314;2023-03-13T12:04:22;100358.19;;;16.20;61.35
60258;BME280;46115;44.484;11.314;2023-03-13T12:08:30;100425.44;;;16.61;62.00
60258;BME280;46115;44.484;11.314;2023-03-13T12:12:39;100431.28;;;15.81;63.34
60258;BME280;46115;44.484;11.314;2023-03-13T12:16:47;100430.06;;;16.59;61.83
60258;BME280;46115;44.484;11.314;2023-03-13T12:20:56;100429.16;;;16.47;62.44
60258;BME280;46115;44.484;11.314;2023-03-13T12:25:02;100418.09;;;16.99;60.42
60258;BME280;46115;44.484;11.314;2023-03-13T12:29:12;100419.59;;;17.03;59.49
60258;BME280;46115;44.484;11.314;2023-03-13T12:33:20;100387.50;;;16.92;59.98
60258;BME280;46115;44.484;11.314;2023-03-13T12:37:31;100418.69;;;17.38;59.49
60258;BME280;46115;44.484;11.314;2023-03-13T12:41:37;100345.97;;;16.77;59.14
60258;BME280;46115;44.484;11.314;2023-03-13T12:45:53;100409.66;;;17.17;59.19
60258;BME280;46115;44.484;11.314;2023-03-13T12:50:06;100405.41;;;17.25;59.71
60258;BME280;46115;44.484;11.314;2023-03-13T12:54:32;100321.22;;;16.86;60.32
60258;BME280;46115;44.484;11.314;2023-03-13T12:58:47;100294.78;;;16.48;60.02
60258;BME280;46115;44.484;11.314;2023-03-13T13:03:01;100336.53;;;16.60;61.09
60258;BME280;46115;44.484;11.314;2023-03-13T13:07:20;100384.22;;;16.89;60.59
60258;BME280;46115;44.484;11.314;2023-03-13T13:11:58;100359.78;;;16.71;60.87
60258;BME280;46115;44.484;11.314;2023-03-13T13:16:03;100357.22;;;16.45;61.32
60258;BME280;46115;44.484;11.314;2023-03-13T13:20:41;100348.28;;;16.22;62.48
60258;BME280;46115;44.484;11.314;2023-03-13T13:24:48;100307.13;;;15.90;63.21
60258;BME280;46115;44.484;11.314;2023-03-13T13:28:52;100313.13;;;16.29;62.30
60258;BME280;46115;44.484;11.314;2023-03-13T13:32:56;100307.28;;;16.59;61.43
60258;BME280;46115;44.484;11.314;2023-03-13T13:37:26;100321.09;;;16.76;61.11
60258;BME280;46115;44.484;11.314;2023-03-13T13:41:34;100290.28;;;16.48;61.21
60258;BME280;46115;44.484;11.314;2023-03-13T13:45:38;100277.09;;;17.04;59.62
60258;BME280;46115;44.484;11.314;2023-03-13T13:49:57;100319.28;;;16.99;60.14
60258;BME280;46115;44.484;11.314;2023-03-13T13:54:04;100294.44;;;17.21;59.61
60258;BME280;46115;44.484;11.314;2023-03-13T13:58:27;100301.97;;;17.05;60.21
60258;BME280;46115;44.484;11.314;2023-03-13T14:02:33;100298.91;;;17.32;59.13
60258;BME280;46115;44.484;11.314;2023-03-13T14:06:37;100288.13;;;17.44;58.83
60258;BME280;46115;44.484;11.314;2023-03-13T14:10:42;100284.19;;;17.60;59.30
60258;BME280;46115;44.484;11.314;2023-03-13T14:14:46;100221.56;;;17.30;58.24
60258;BME280;46115;44.484;11.314;2023-03-13T14:18:49;100188.00;;;16.83;59.03
60258;BME280;46115;44.484;11.314;2023-03-13T14:22:53;100276.69;;;17.54;58.78
60258;BME280;46115;44.484;11.314;2023-03-13T14:26:58;100243.91;;;17.29;58.74
60258;BME280;46115;44.484;11.314;2023-03-13T14:31:00;100256.16;;;17.54;58.29
60258;BME280;46115;44.484;11.314;2023-03-13T14:35:03;100190.91;;;16.91;58.65
60258;BME280;46115;44.484;11.314;2023-03-13T14:39:16;100285.94;;;17.27;58.79
60258;BME280;46115;44.484;11.314;2023-03-13T14:43:26;100249.16;;;16.97;59.54
60258;BME280;46115;44.484;11.314;2023-03-13T14:47:29;100245.72;;;17.29;59.20
60258;BME280;46115;44.484;11.314;2023-03-13T14:51:32;100273.75;;;17.79;58.05
60258;BME280;46115;44.484;11.314;2023-03-13T14:55:38;100275.81;;;17.64;57.92
60258;BME280;46115;44.484;11.314;2023-03-13T14:59:43;100231.91;;;17.35;58.44
60258;BME280;46115;44.484;11.314;2023-03-13T15:03:45;100274.03;;;17.31;59.64
60258;BME280;46115;44.484;11.314;2023-03-13T15:07:52;100204.25;;;16.91;60.21
60258;BME280;46115;44.484;11.314;2023-03-13T15:11:57;100256.19;;;17.09;61.03
60258;BME280;46115;44.484;11.314;2023-03-13T15:16:04;100190.78;;;16.81;60.91
60258;BME280;46115;44.484;11.314;2023-03-13T15:20:15;100185.03;;;16.64;61.95
60258;BME280;46115;44.484;11.314;2023-03-13T15:24:18;100205.31;;;17.00;61.71
60258;BME280;46115;44.484;11.314;2023-03-13T15:28:22;100219.03;;;16.95;61.70
60258;BME280;46115;44.484;11.314;2023-03-13T15:32:28;100164.34;;;16.78;61.69
60258;BME280;46115;44.484;11.314;2023-03-13T15:36:31;100236.53;;;17.22;61.84
60258;BME280;46115;44.484;11.314;2023-03-13T15:40:33;100232.59;;;17.48;61.19
60258;BME280;46115;44.484;11.314;2023-03-13T15:44:36;100190.72;;;16.59;63.23
60258;BME280;46115;44.484;11.314;2023-03-13T15:48:40;100143.56;;;16.48;63.28
60258;BME280;46115;44.484;11.314;2023-03-13T15:52:43;100198.44;;;16.86;63.01
60258;BME280;46115;44.484;11.314;2023-03-13T15:56:45;100214.06;;;17.24;62.27
60258;BME280;46115;44.484;11.314;2023-03-13T16:00:48;100205.22;;;16.90;63.28
60258;BME280;46115;44.484;11.314;2023-03-13T16:04:52;100205.34;;;16.77;63.91
60258;BME280;46115;44.484;11.314;2023-03-13T16:08:56;100181.75;;;16.60;63.66
60258;BME280;46115;44.484;11.314;2023-03-13T16:13:00;100122.56;;;16.21;64.03
60258;BME280;46115;44.484;11.314;2023-03-13T16:17:11;100184.19;;;16.63;63.73
60258;BME280;46115;44.484;11.314;2023-03-13T16:21:18;100199.53;;;17.06;63.16
60258;BME280;46115;44.484;11.314;2023-03-13T16:25:21;100188.19;;;16.46;64.61
60258;BME280;46115;44.484;11.314;2023-03-13T16:29:24;100183.53;;;16.26;65.52
60258;BME280;46115;44.484;11.314;2023-03-13T16:33:26;100133.84;;;16.47;63.77
60258;BME280;46115;44.484;11.314;2023-03-13T16:37:30;100147.31;;;16.46;63.51
60258;BME280;46115;44.484;11.314;2023-03-13T16:41:32;100198.19;;;16.78;64.01
60258;BME280;46115;44.484;11.314;2023-03-13T16:45:35;100176.28;;;16.39;64.28
60258;BME280;46115;44.484;11.314;2023-03-13T16:49:37;100126.72;;;15.90;64.97
60258;BME280;46115;44.484;11.314;2023-03-13T16:53:42;100119.25;;;16.07;64.52
60258;BME280;46115;44.484;11.314;2023-03-13T16:57:45;100185.97;;;16.29;64.87
60258;BME280;46115;44.484;11.314;2023-03-13T17:01:47;100178.41;;;15.77;66.17
60258;BME280;46115;44.484;11.314;2023-03-13T17:05:50;100192.34;;;16.04;67.04
60258;BME280;46115;44.484;11.314;2023-03-13T17:09:54;100184.69;;;15.52;70.99
60258;BME280;46115;44.484;11.314;2023-03-13T17:13:56;100189.28;;;15.50;72.70
60258;BME280;46115;44.484;11.314;2023-03-13T17:17:59;100186.19;;;15.19;75.46
60258;BME280;46115;44.484;11.314;2023-03-13T17:22:01;100174.78;;;14.93;77.47
60258;BME280;46115;44.484;11.314;2023-03-13T17:26:12;100157.81;;;14.58;78.44
60258;BME280;46115;44.484;11.314;2023-03-13T17:30:21;100127.78;;;14.43;78.89
60258;BME280;46115;44.484;11.314;2023-03-13T17:34:25;100168.00;;;14.64;79.76
60258;BME280;46115;44.484;11.314;2023-03-13T17:38:30;100144.91;;;14.39;79.87
60258;BME280;46115;44.484;11.314;2023-03-13T17:42:33;100170.66;;;14.26;80.98
60258;BME280;46115;44.484;11.314;2023-03-13T17:46:38;100141.06;;;14.05;80.92
60258;BME280;46115;44.484;11.314;2023-03-13T17:50:41;100133.81;;;13.94;81.62
60258;BME280;46115;44.484;11.314;2023-03-13T23:06:13;99792.63;;;11.52;88.73
60258;BME280;46115;44.484;11.314;2023-03-13T23:10:17;99780.53;;;11.48;88.42
60258;BME280;46115;44.484;11.314;2023-03-13T23:14:20;99834.34;;;11.90;87.58
60258;BME280;46115;44.484;11.314;2023-03-13T23:18:22;99820.75;;;11.68;86.98
60258;BME280;46115;44.484;11.314;2023-03-13T23:22:26;99776.78;;;11.79;87.67
60258;BME280;46115;44.484;11.314;2023-03-13T23:26:32;99765.31;;;11.93;87.77
60258;BME280;46115;44.484;11.314;2023-03-13T23:30:34;99782.94;;;11.80;87.47
60258;BME280;46115;44.484;11.314;2023-03-13T23:34:37;99746.31;;;11.72;88.11
60258;BME280;46115;44.484;11.314;2023-03-13T23:38:41;99722.06;;;11.66;87.43
60258;BME280;46115;44.484;11.314;2023-03-13T23:42:44;99736.13;;;11.66;89.11
60258;BME280;46115;44.484;11.314;2023-03-13T23:46:46;99740.31;;;11.97;88.55
60258;BME280;46115;44.484;11.314;2023-03-13T23:50:48;99733.56;;;11.79;89.70
60258;BME280;46115;44.484;11.314;2023-03-13T23:54:52;99708.41;;;11.72;88.75
60258;BME280;46115;44.484;11.314;2023-03-13T23:58:54;99639.69;;;11.43;88.89
